Time;durP1;ratioP1;P1;durP2;ratioP2;P2;SDS_P1;SDS_P2;PMS_P1;PMS_P2;Temp;Humidity;BMP_temperature;BMP_pressure;BME280_temperature;BME280_humidity;BME280_pressure;Samples;Min_cycle;Max_cycle;Signal;HPM_P1;HPM_P2
2023/12/05 00:04:05;;;;;;;2.95;2.35;;;;;;;2.13;100.00;99887.94;10339441;28;20097;-72
2023/12/05 00:09:06;;;;;;;0.70;0.70;;;;;;;2.16;100.00;99895.63;10339336;28;20035;-75
2023/12/05 00:14:06;;;;;;;1.20;1.15;;;;;;;2.22;100.00;99895.78;10339325;28;20097;-74
2023/12/05 00:19:07;;;;;;;1.02;1.02;;;;;;;2.20;100.00;99889.81;10338416;28;20037;-74
2023/12/05 00:24:07;;;;;;;1.30;1.30;;;;;;;2.17;100.00;99889.28;10338835;28;20034;-74
2023/12/05 00:29:07;;;;;;;1.00;1.00;;;;;;;2.19;100.00;99887.28;10338408;28;20415;-73
2023/12/05 00:34:08;;;;;;;2.10;2.00;;;;;;;2.20;100.00;99888.94;10337106;28;20074;-74
2023/12/05 00:39:08;;;;;;;2.38;1.77;;;;;;;2.19;100.00;99895.28;10338217;28;20112;-74
2023/12/05 00:44:09;;;;;;;1.30;1.30;;;;;;;2.23;100.00;99892.09;10336898;28;20115;-74
2023/12/05 00:49:09;;;;;;;1.08;1.08;;;;;;;2.24;100.00;99893.78;10337882;28;20455;-73
2023/12/05 00:54:09;;;;;;;2.78;2.58;;;;;;;2.24;100.00;99882.28;10335517;28;20541;-73
2023/12/05 00:59:10;;;;;;;1.33;1.33;;;;;;;2.31;100.00;99885.94;10338031;28;20038;-74
2023/12/05 01:04:10;;;;;;;1.10;1.10;;;;;;;2.29;100.00;99883.41;10336799;28;20120;-74
2023/12/05 01:09:11;;;;;;;0.80;0.80;;;;;;;2.22;100.00;99874.41;10337822;28;20066;-76
2023/12/05 01:14:11;;;;;;;2.00;1.95;;;;;;;2.23;100.00;99888.59;10335090;28;20046;-73
2023/12/05 01:19:12;;;;;;;2.83;2.55;;;;;;;2.28;100.00;99894.28;10335547;28;20186;-73
2023/12/05 01:24:12;;;;;;;1.05;1.05;;;;;;;2.29;100.00;99894.09;10336324;28;20049;-74
2023/12/05 01:29:12;;;;;;;1.17;1.17;;;;;;;2.28;100.00;99892.44;10334454;28;20038;-76
2023/12/05 01:34:13;;;;;;;4.00;3.70;;;;;;;2.25;100.00;99899.97;10335105;28;20034;-75
2023/12/05 01:39:13;;;;;;;1.10;1.10;;;;;;;2.19;100.00;99893.44;10335908;28;20066;-74
2023/12/05 01:44:14;;;;;;;0.80;0.80;;;;;;;2.19;100.00;99898.78;10336813;28;20077;-73
2023/12/05 01:49:16;;;;;;;0.73;0.73;;;;;;;2.24;100.00;99898.31;10318436;28;20121;-75
2023/12/05 01:54:17;;;;;;;1.95;1.90;;;;;;;2.21;100.00;99896.81;10333372;28;20046;-73
2023/12/05 01:59:17;;;;;;;4.88;4.57;;;;;;;2.27;100.00;99904.16;10334165;28;20120;-73
2023/12/05 02:04:18;;;;;;;1.15;1.15;;;;;;;2.19;100.00;99900.63;10333053;28;20046;-73
2023/12/05 02:09:19;;;;;;;1.05;1.05;;;;;;;2.19;100.00;99896.13;10334154;28;20081;-73
2023/12/05 02:14:19;;;;;;;0.60;0.60;;;;;;;2.22;100.00;99898.47;10318100;28;20038;-75
2023/12/05 02:19:42;;;;;;;1.10;1.10;;;;;;;2.18;100.00;99913.16;10334783;28;20509;-76
2023/12/05 02:24:52;;;;;;;1.75;1.75;;;;;;;2.13;100.00;99902.13;10332641;28;20408;-72
2023/12/05 02:29:53;;;;;;;2.65;2.55;;;;;;;2.17;100.00;99902.63;10332386;28;20388;-74
2023/12/05 02:34:53;;;;;;;2.58;2.47;;;;;;;2.18;100.00;99907.00;10333671;28;20038;-74
2023/12/05 02:40:00;;;;;;;1.10;1.10;;;;;;;2.12;100.00;99910.31;10334078;28;20066;-73
2023/12/05 02:45:02;;;;;;;0.80;0.80;;;;;;;2.16;100.00;99901.81;10316108;28;20368;-74
2023/12/05 02:50:03;;;;;;;1.90;1.90;;;;;;;2.07;100.00;99909.00;10333499;28;20430;-74
2023/12/05 02:55:04;;;;;;;1.10;1.10;;;;;;;2.04;100.00;99903.13;10333034;28;20473;-73
2023/12/05 03:00:06;;;;;;;3.50;3.33;;;;;;;2.08;100.00;99910.66;10333074;28;20030;-72
2023/12/05 03:05:07;;;;;;;1.20;1.20;;;;;;;2.16;100.00;99906.31;10333833;28;20030;-73
2023/12/05 03:10:07;;;;;;;1.15;1.15;;;;;;;2.13;100.00;99906.66;10340406;28;20466;-74
2023/12/05 03:15:08;;;;;;;2.55;2.45;;;;;;;2.10;100.00;99902.47;10361517;28;20022;-74
2023/12/05 03:20:09;;;;;;;0.90;0.90;;;;;;;1.99;100.00;99900.97;10340111;28;20049;-76
2023/12/05 03:25:09;;;;;;;3.60;3.42;;;;;;;2.00;100.00;99912.47;10335319;28;20035;-71
2023/12/05 03:30:10;;;;;;;0.70;0.70;;;;;;;2.02;100.00;99910.50;10332487;28;20354;-74
2023/12/05 03:35:10;;;;;;;3.47;3.20;;;;;;;1.97;100.00;99910.97;10333344;28;20441;-73
2023/12/05 03:40:11;;;;;;;2.33;2.25;;;;;;;1.91;100.00;99898.28;10339694;28;20034;-73
2023/12/05 03:45:11;;;;;;;1.00;1.00;;;;;;;2.02;100.00;99905.16;10339353;28;20463;-73
2023/12/05 03:50:12;;;;;;;1.25;1.25;;;;;;;2.06;100.00;99907.31;10339012;28;20066;-73
2023/12/05 03:55:12;;;;;;;1.40;1.40;;;;;;;2.17;100.00;99918.66;10339010;28;20331;-75
2023/12/05 04:00:14;;;;;;;1.20;1.20;;;;;;;2.19;100.00;99922.00;10339323;28;20117;-74
2023/12/05 04:05:14;;;;;;;0.80;0.80;;;;;;;2.28;100.00;99931.69;10338762;28;20045;-75
2023/12/05 04:10:14;;;;;;;0.65;0.65;;;;;;;2.36;100.00;99937.00;10337159;28;20044;-73
2023/12/05 04:15:15;;;;;;;3.35;3.25;;;;;;;2.37;100.00;99945.88;10338983;28;20393;-72
2023/12/05 04:20:17;;;;;;;2.08;2.08;;;;;;;2.28;100.00;99943.19;10339131;28;20058;-73
2023/12/05 04:25:17;;;;;;;0.70;0.70;;;;;;;2.37;100.00;99951.22;10339111;28;20044;-71
2023/12/05 04:30:18;;;;;;;0.68;0.68;;;;;;;2.29;100.00;99957.38;10336864;28;20458;-74
2023/12/05 04:35:18;;;;;;;1.65;1.63;;;;;;;2.29;100.00;99963.56;10338243;28;20121;-74
2023/12/05 04:40:20;;;;;;;3.53;2.88;;;;;;;2.29;100.00;99970.75;10336858;28;20050;-74
2023/12/05 04:45:20;;;;;;;0.82;0.82;;;;;;;2.31;100.00;99966.91;10337711;28;20097;-72
2023/12/05 04:50:21;;;;;;;1.95;1.85;;;;;;;2.20;100.00;99982.41;10334402;28;20533;-72
2023/12/05 04:55:21;;;;;;;1.08;1.08;;;;;;;1.99;100.00;99970.41;10337102;28;20030;-75
2023/12/05 05:00:21;;;;;;;2.55;2.45;;;;;;;2.11;100.00;99976.25;10336549;28;20039;-73
2023/12/05 05:05:22;;;;;;;1.20;1.20;;;;;;;2.02;100.00;99983.41;10337788;28;20111;-73
2023/12/05 05:10:22;;;;;;;6.15;5.85;;;;;;;1.99;100.00;99991.75;10337648;28;20045;-73
2023/12/05 05:15:23;;;;;;;0.70;0.70;;;;;;;1.90;100.00;99994.56;10335109;28;20566;-73
2023/12/05 05:20:23;;;;;;;1.92;1.85;;;;;;;1.91;100.00;100001.56;10336645;28;20109;-73
2023/12/05 05:25:23;;;;;;;1.08;1.08;;;;;;;1.92;100.00;99998.75;10337153;28;20480;-75
2023/12/05 05:30:24;;;;;;;0.80;0.80;;;;;;;1.95;100.00;100006.44;10340428;28;20054;-73
2023/12/05 05:35:24;;;;;;;3.90;3.20;;;;;;;1.97;100.00;100014.28;10349578;28;20041;-72
2023/12/05 05:40:26;;;;;;;3.10;2.85;;;;;;;2.00;100.00;100008.59;10354456;28;20081;-72
2023/12/05 05:45:26;;;;;;;2.75;2.55;;;;;;;2.04;100.00;100009.94;10347769;28;20144;-75
2023/12/05 05:50:27;;;;;;;1.60;1.58;;;;;;;2.08;100.00;100024.66;10338975;28;20084;-73
2023/12/05 05:55:27;;;;;;;5.07;1.90;;;;;;;2.09;100.00;100024.47;10335122;28;20069;-75
2023/12/05 06:00:27;;;;;;;0.80;0.80;;;;;;;2.07;100.00;100017.63;10336322;28;20046;-73
2023/12/05 06:05:28;;;;;;;1.00;1.00;;;;;;;2.01;100.00;100027.16;10349687;28;20049;-72
2023/12/05 06:10:30;;;;;;;6.57;4.85;;;;;;;2.00;100.00;100036.13;10347629;28;20484;-72
2023/12/05 06:15:30;;;;;;;1.13;1.13;;;;;;;2.03;100.00;100041.16;10346401;28;20110;-71
2023/12/05 06:20:32;;;;;;;0.65;0.65;;;;;;;1.94;100.00;100060.81;10285256;28;20043;-71
2023/12/05 06:25:32;;;;;;;5.55;2.88;;;;;;;1.94;100.00;100052.81;10333807;28;20125;-72
2023/12/05 06:30:32;;;;;;;2.10;2.08;;;;;;;1.93;100.00;100056.50;10334685;28;20434;-74
2023/12/05 06:35:33;;;;;;;1.33;1.33;;;;;;;1.94;100.00;100058.16;10336052;28;20038;-73
2023/12/05 06:40:33;;;;;;;0.82;0.82;;;;;;;2.05;100.00;100067.72;10339141;28;20473;-72
2023/12/05 06:45:36;;;;;;;2.45;2.35;;;;;;;2.06;100.00;100074.72;10336504;28;20466;-72
2023/12/05 06:50:37;;;;;;;2.08;2.00;;;;;;;2.01;100.00;100087.72;10338091;28;20034;-73
2023/12/05 06:55:38;;;;;;;1.00;1.00;;;;;;;2.09;100.00;100101.09;10339468;28;20038;-74
2023/12/05 07:00:38;;;;;;;1.15;1.15;;;;;;;2.07;100.00;100111.09;10335709;28;20034;-74
2023/12/05 07:05:39;;;;;;;9.98;7.00;;;;;;;1.94;100.00;100116.88;10334989;28;20076;-73
2023/12/05 07:10:39;;;;;;;1.02;1.02;;;;;;;2.00;100.00;100115.41;10335516;28;20022;-73
2023/12/05 07:15:40;;;;;;;0.90;0.90;;;;;;;2.06;100.00;100123.63;10342447;28;20080;-72
2023/12/05 07:20:40;;;;;;;1.50;1.50;;;;;;;2.13;100.00;100125.66;10342161;28;20022;-72
2023/12/05 07:25:40;;;;;;;1.48;1.48;;;;;;;2.15;100.00;100129.84;10341156;28;20165;-74
2023/12/05 07:30:41;;;;;;;3.88;3.58;;;;;;;2.10;100.00;100140.97;10341160;28;20473;-73
2023/12/05 07:35:42;;;;;;;1.17;1.17;;;;;;;2.11;100.00;100141.84;10339937;28;20374;-71
2023/12/05 07:40:42;;;;;;;1.08;1.08;;;;;;;2.21;100.00;100147.06;10340579;28;20137;-72
2023/12/05 07:45:43;;;;;;;2.85;2.75;;;;;;;2.27;100.00;100159.75;10339640;28;20066;-73
2023/12/05 07:50:43;;;;;;;1.20;1.20;;;;;;;2.19;100.00;100173.06;10340907;28;20443;-72
2023/12/05 07:55:44;;;;;;;1.63;1.63;;;;;;;2.21;100.00;100173.75;10340144;28;20034;-72
2023/12/05 08:00:44;;;;;;;1.65;1.65;;;;;;;2.29;100.00;100182.63;10340578;28;20067;-72
2023/12/05 08:05:45;;;;;;;2.55;2.45;;;;;;;2.38;100.00;100185.34;10321216;28;20053;-71
2023/12/05 08:10:45;;;;;;;0.70;0.70;;;;;;;2.37;100.00;100199.69;10338556;28;20034;-73
2023/12/05 08:15:46;;;;;;;0.80;0.80;;;;;;;2.39;100.00;100205.69;10338787;28;20102;-71
2023/12/05 08:20:46;;;;;;;0.80;0.80;;;;;;;2.46;100.00;100206.75;10337773;28;20054;-72
2023/12/05 08:25:46;;;;;;;0.95;0.95;;;;;;;2.46;100.00;100212.94;10336929;28;20118;-71
2023/12/05 08:30:47;;;;;;;3.20;3.05;;;;;;;2.52;100.00;100211.41;10337950;28;20085;-72
2023/12/05 08:35:47;;;;;;;4.07;3.80;;;;;;;2.52;100.00;100211.41;10338875;28;20050;-73
2023/12/05 08:40:48;;;;;;;0.70;0.70;;;;;;;2.42;100.00;100232.09;10342976;28;20083;-73
2023/12/05 08:45:48;;;;;;;0.77;0.77;;;;;;;2.44;100.00;100235.47;10344489;28;20035;-72
2023/12/05 08:50:48;;;;;;;1.00;1.00;;;;;;;2.45;100.00;100243.31;10342914;28;20049;-72
2023/12/05 08:55:49;;;;;;;0.90;0.90;;;;;;;2.40;100.00;100250.97;10360144;28;20038;-72
2023/12/05 09:00:49;;;;;;;4.95;4.75;;;;;;;2.41;100.00;100249.13;10344871;28;20454;-72
2023/12/05 09:05:50;;;;;;;1.15;1.15;;;;;;;2.43;100.00;100252.50;10344135;28;20106;-71
2023/12/05 09:10:50;;;;;;;6.60;6.05;;;;;;;2.43;100.00;100263.19;10346453;28;20465;-73
2023/12/05 09:15:51;;;;;;;2.05;1.95;;;;;;;2.39;100.00;100259.97;10341555;28;20049;-75
2023/12/05 09:20:51;;;;;;;0.80;0.80;;;;;;;2.39;100.00;100269.81;10339838;28;20031;-73
2023/12/05 09:25:53;;;;;;;2.70;2.50;;;;;;;2.35;100.00;100272.00;10338428;28;20061;-72
2023/12/05 09:30:53;;;;;;;3.40;3.22;;;;;;;2.44;100.00;100281.72;10340129;28;20034;-72
2023/12/05 09:35:54;;;;;;;2.40;2.33;;;;;;;2.47;100.00;100288.59;10320976;28;20066;-71
2023/12/05 09:40:54;;;;;;;2.13;2.13;;;;;;;2.48;100.00;100299.09;10336604;28;20069;-73
2023/12/05 09:45:59;;;;;;;2.50;2.35;;;;;;;2.43;100.00;100304.09;10333985;28;20045;-73
2023/12/05 09:51:00;;;;;;;1.00;1.00;;;;;;;2.41;100.00;100308.75;10317868;28;20023;-73
2023/12/05 09:56:00;;;;;;;2.75;2.65;;;;;;;2.45;100.00;100318.13;10317138;28;20045;-72
2023/12/05 10:01:01;;;;;;;7.05;6.50;;;;;;;2.46;100.00;100319.81;10303726;28;20069;-72
2023/12/05 10:06:04;;;;;;;0.82;0.82;;;;;;;2.57;100.00;100326.72;10334331;28;20034;-74
2023/12/05 10:11:04;;;;;;;5.97;5.68;;;;;;;2.59;100.00;100331.91;10333353;28;20023;-72
2023/12/05 10:16:06;;;;;;;0.70;0.70;;;;;;;2.57;100.00;100340.06;10316710;28;20109;-72
2023/12/05 10:21:07;;;;;;;2.88;2.17;;;;;;;2.60;100.00;100344.28;10332444;28;20037;-72
2023/12/05 10:26:07;;;;;;;0.70;0.70;;;;;;;2.58;100.00;100347.09;10332919;28;20061;-72
2023/12/05 10:31:14;;;;;;;1.05;1.05;;;;;;;2.67;100.00;100351.47;10333269;28;20042;-73
2023/12/05 10:36:15;;;;;;;0.90;0.90;;;;;;;2.71;100.00;100368.03;10332146;28;20049;-72
2023/12/05 10:41:22;;;;;;;1.52;1.52;;;;;;;2.60;100.00;100371.84;10333807;28;20403;-72
2023/12/05 10:46:28;;;;;;;1.00;1.00;;;;;;;2.59;100.00;100377.34;10333797;28;20041;-72
2023/12/05 10:51:28;;;;;;;1.52;1.52;;;;;;;2.64;100.00;100378.53;10332287;28;20027;-72
2023/12/05 10:56:28;;;;;;;0.60;0.60;;;;;;;2.72;100.00;100383.94;10334366;28;20376;-72
2023/12/05 11:01:29;;;;;;;0.90;0.90;;;;;;;2.74;100.00;100387.28;10332598;28;20030;-73
2023/12/05 11:06:30;;;;;;;2.55;2.45;;;;;;;2.70;100.00;100395.78;10331582;28;20035;-72
2023/12/05 11:11:30;;;;;;;1.25;1.25;;;;;;;2.67;100.00;100390.75;10332791;28;20037;-72
2023/12/05 11:16:31;;;;;;;0.60;0.60;;;;;;;2.66;100.00;100387.25;10315939;28;20022;-73
2023/12/05 11:21:49;;;;;;;1.13;1.13;;;;;;;2.67;100.00;100390.75;10315119;28;20038;-72
2023/12/05 11:26:58;;;;;;;2.05;2.05;;;;;;;2.78;100.00;100390.50;10332910;28;20023;-72
2023/12/05 11:32:39;;;;;;;1.17;1.17;;;;;;;2.71;100.00;100386.75;10331673;28;20031;-72
2023/12/05 11:38:04;;;;;;;0.88;0.88;;;;;;;2.73;100.00;100390.13;10330291;28;20387;-73
2023/12/05 11:43:08;;;;;;;2.28;2.20;;;;;;;2.76;100.00;100389.78;10332946;28;20053;-72
2023/12/05 11:48:15;;;;;;;0.70;0.70;;;;;;;2.88;100.00;100385.84;10331168;28;20018;-72
2023/12/05 11:53:17;;;;;;;1.52;1.45;;;;;;;2.82;100.00;100399.03;10331215;28;20198;-73
2023/12/05 11:58:28;;;;;;;1.90;1.80;;;;;;;2.86;100.00;100406.56;10318534;28;20113;-72
2023/12/05 12:03:42;;;;;;;1.75;1.73;;;;;;;2.91;100.00;100404.25;10337626;28;20473;-71
2023/12/05 12:08:45;;;;;;;1.63;1.63;;;;;;;2.91;100.00;100414.13;10338601;28;20022;-71
2023/12/05 12:13:45;;;;;;;0.90;0.90;;;;;;;3.03;100.00;100432.41;10340105;28;20033;-72
2023/12/05 12:18:46;;;;;;;1.20;1.15;;;;;;;2.95;100.00;100431.50;10322406;28;20392;-73
2023/12/05 12:23:53;;;;;;;1.70;1.70;;;;;;;2.98;100.00;100453.41;10338758;28;20030;-71
2023/12/05 12:28:54;;;;;;;0.82;0.82;;;;;;;2.94;100.00;100461.94;10338997;28;20030;-72
2023/12/05 12:33:56;;;;;;;1.42;1.42;;;;;;;2.91;100.00;100463.09;10336428;28;20085;-72
2023/12/05 12:38:57;;;;;;;1.30;1.30;;;;;;;2.91;100.00;100460.41;10340498;28;20072;-72
2023/12/05 12:43:57;;;;;;;1.10;1.10;;;;;;;2.86;100.00;100462.72;10324417;28;20088;-72
2023/12/05 12:48:58;;;;;;;1.08;1.08;;;;;;;2.84;100.00;100464.72;10339665;28;20034;-72
2023/12/05 12:53:59;;;;;;;3.53;3.13;;;;;;;2.85;100.00;100469.06;10339325;28;20435;-72
2023/12/05 12:59:00;;;;;;;4.20;3.90;;;;;;;2.93;100.00;100481.63;10339906;28;20066;-73
2023/12/05 13:04:01;;;;;;;1.27;1.27;;;;;;;2.93;100.00;100465.59;10338655;28;20058;-71
2023/12/05 13:09:11;;;;;;;0.73;0.73;;;;;;;2.95;100.00;100466.28;10321127;28;20038;-74
2023/12/05 13:14:16;;;;;;;1.48;1.48;;;;;;;2.95;100.00;100476.97;10338984;28;20129;-72
2023/12/05 13:19:29;;;;;;;1.17;1.17;;;;;;;2.96;100.00;100471.44;10337046;28;20037;-73
2023/12/05 13:24:29;;;;;;;0.88;0.88;;;;;;;2.95;100.00;100479.66;10339416;28;20038;-72
2023/12/05 13:29:29;;;;;;;1.08;1.08;;;;;;;2.98;100.00;100477.50;10343217;28;20062;-72
2023/12/05 13:34:30;;;;;;;2.88;2.63;;;;;;;3.00;100.00;100493.41;10344813;28;20038;-71
2023/12/05 13:39:30;;;;;;;1.08;1.05;;;;;;;3.10;100.00;100498.63;10342714;28;20082;-71
2023/12/05 13:44:31;;;;;;;1.55;1.48;;;;;;;3.12;100.00;100493.94;10340966;28;20050;-72
2023/12/05 13:49:31;;;;;;;1.35;1.35;;;;;;;3.14;100.00;100500.00;10339786;28;20092;-72
2023/12/05 13:54:33;;;;;;;1.20;1.20;;;;;;;3.09;100.00;100503.13;10338228;28;20042;-73
2023/12/05 13:59:34;;;;;;;1.88;1.83;;;;;;;3.12;100.00;100513.50;10319419;28;20064;-72
2023/12/05 14:04:34;;;;;;;0.82;0.82;;;;;;;3.04;100.00;100510.81;10335714;28;20045;-72
2023/12/05 14:09:35;;;;;;;2.75;2.65;;;;;;;3.10;100.00;100528.06;10334851;28;20030;-72
2023/12/05 14:14:35;;;;;;;1.23;1.20;;;;;;;3.06;100.00;100532.03;10338883;28;20122;-71
2023/12/05 14:19:36;;;;;;;1.77;1.67;;;;;;;3.05;100.00;100533.03;10338116;28;20038;-72
2023/12/05 14:24:37;;;;;;;1.70;1.60;;;;;;;3.02;100.00;100537.69;10337621;28;20074;-73
2023/12/05 14:29:38;;;;;;;1.48;1.48;;;;;;;3.02;100.00;100548.41;10335095;28;20030;-72
2023/12/05 14:34:38;;;;;;;3.30;2.15;;;;;;;3.01;100.00;100553.91;10334170;28;20340;-73
2023/12/05 14:39:38;;;;;;;2.67;2.53;;;;;;;3.04;100.00;100569.66;10334047;28;20119;-73
2023/12/05 14:44:40;;;;;;;0.90;0.90;;;;;;;3.01;100.00;100575.31;10336419;28;20046;-71
2023/12/05 14:49:40;;;;;;;0.75;0.75;;;;;;;2.95;100.00;100587.47;10339071;28;20086;-73
2023/12/05 14:54:40;;;;;;;4.38;3.08;;;;;;;2.95;100.00;100584.78;10334687;28;20037;-73
2023/12/05 14:59:41;;;;;;;1.60;1.60;;;;;;;2.95;100.00;100600.84;10332571;28;20045;-72
2023/12/05 15:04:42;;;;;;;0.60;0.60;;;;;;;2.95;100.00;100606.19;10344627;28;20034;-74
2023/12/05 15:09:42;;;;;;;1.65;1.30;;;;;;;2.95;100.00;100608.03;10377165;28;20030;-73
2023/12/05 15:14:42;;;;;;;0.70;0.70;;;;;;;2.94;100.00;100617.06;10362957;28;20112;-72
2023/12/05 15:19:43;;;;;;;0.77;0.77;;;;;;;2.97;100.00;100624.78;10340440;28;20038;-72
2023/12/05 15:24:43;;;;;;;0.70;0.70;;;;;;;2.92;100.00;100629.75;10333571;28;20165;-72
2023/12/05 15:29:44;;;;;;;1.65;1.60;;;;;;;2.88;100.00;100633.72;10332691;28;20034;-73
2023/12/05 15:34:44;;;;;;;4.18;1.98;;;;;;;2.86;100.00;100643.72;10337974;28;20050;-74
2023/12/05 15:39:45;;;;;;;0.80;0.80;;;;;;;2.84;100.00;100643.88;10339990;28;20027;-72
2023/12/05 15:44:45;;;;;;;0.80;0.80;;;;;;;2.79;100.00;100655.03;10340780;28;20093;-73
2023/12/05 15:49:46;;;;;;;0.80;0.80;;;;;;;2.80;100.00;100653.19;10340526;28;20453;-74
2023/12/05 15:54:46;;;;;;;1.38;1.38;;;;;;;2.83;100.00;100665.41;10339389;28;20050;-74
2023/12/05 15:59:46;;;;;;;0.90;0.90;;;;;;;2.85;100.00;100676.81;10338881;28;20034;-74
2023/12/05 16:04:47;;;;;;;0.80;0.80;;;;;;;2.84;100.00;100677.78;10339277;28;20041;-72
2023/12/05 16:09:48;;;;;;;1.77;1.67;;;;;;;2.89;100.00;100691.56;10322228;28;20026;-74
2023/12/05 16:14:48;;;;;;;1.58;1.58;;;;;;;2.88;100.00;100695.22;10338793;28;20045;-72
2023/12/05 16:19:48;;;;;;;4.80;4.53;;;;;;;2.86;100.00;100695.38;10338214;28;20026;-73
2023/12/05 16:24:49;;;;;;;2.35;2.30;;;;;;;2.83;100.00;100711.72;10336961;28;20084;-73
2023/12/05 16:29:49;;;;;;;5.00;3.50;;;;;;;2.85;100.00;100712.41;10337790;28;20038;-74
2023/12/05 16:34:50;;;;;;;0.70;0.70;;;;;;;2.84;100.00;100715.22;10339090;28;20085;-73
2023/12/05 16:39:50;;;;;;;4.50;2.55;;;;;;;2.79;100.00;100710.34;10337997;28;20158;-72
2023/12/05 16:44:51;;;;;;;1.80;1.80;;;;;;;2.80;100.00;100720.03;10338664;28;20125;-72
2023/12/05 16:49:51;;;;;;;1.42;1.42;;;;;;;2.76;100.00;100724.84;10336227;28;20032;-73
2023/12/05 16:54:52;;;;;;;1.45;1.45;;;;;;;2.74;100.00;100729.53;10334950;28;20399;-71
2023/12/05 16:59:52;;;;;;;1.38;1.38;;;;;;;2.69;100.00;100725.63;10336906;28;20104;-71
2023/12/05 17:04:53;;;;;;;3.90;3.65;;;;;;;2.62;100.00;100729.91;10337658;28;20061;-72
2023/12/05 17:09:53;;;;;;;1.35;1.33;;;;;;;2.61;100.00;100739.72;10337127;28;20034;-73
2023/12/05 17:14:54;;;;;;;2.25;2.15;;;;;;;2.56;100.00;100740.19;10336548;28;20049;-72
2023/12/05 17:19:54;;;;;;;1.08;1.08;;;;;;;2.52;100.00;100741.47;10336743;28;20049;-73
2023/12/05 17:24:55;;;;;;;0.80;0.80;;;;;;;2.49;100.00;100751.59;10319876;28;20070;-71
2023/12/05 17:29:55;;;;;;;1.00;1.00;;;;;;;2.47;100.00;100767.81;10335234;28;20351;-73
2023/12/05 17:34:56;;;;;;;1.02;1.02;;;;;;;2.44;100.00;100776.13;10336093;28;20069;-72
2023/12/05 17:39:58;;;;;;;1.85;1.85;;;;;;;2.47;100.00;100775.81;10319227;28;20031;-71
2023/12/05 17:44:59;;;;;;;3.63;2.50;;;;;;;2.42;100.00;100780.75;10319077;28;20151;-73
2023/12/05 17:49:59;;;;;;;1.98;1.83;;;;;;;2.54;100.00;100786.75;10334359;28;20034;-72
2023/12/05 17:54:59;;;;;;;6.35;5.78;;;;;;;2.59;100.00;100805.88;10316612;28;20137;-73
2023/12/05 18:00:00;;;;;;;0.80;0.80;;;;;;;2.57;100.00;100807.84;10333932;28;20037;-71
2023/12/05 18:05:01;;;;;;;7.57;6.80;;;;;;;2.53;100.00;100822.50;10334351;28;20096;-73
2023/12/05 18:10:02;;;;;;;23.88;20.02;;;;;;;2.56;100.00;100832.91;10334687;28;20347;-72
2023/12/05 18:15:06;;;;;;;31.25;23.80;;;;;;;2.54;100.00;100829.53;10333189;28;20026;-72
2023/12/05 18:20:08;;;;;;;30.33;23.10;;;;;;;2.61;100.00;100846.66;10334335;28;20188;-72
2023/12/05 18:25:09;;;;;;;25.30;20.15;;;;;;;2.63;100.00;100854.53;10333104;28;20026;-74
2023/12/05 18:30:09;;;;;;;24.95;21.75;;;;;;;2.60;100.00;100862.84;10334718;28;20077;-72
2023/12/05 18:35:10;;;;;;;28.73;22.85;;;;;;;2.57;100.00;100866.66;10332106;28;20092;-71
2023/12/05 18:40:11;;;;;;;36.78;24.10;;;;;;;2.58;100.00;100878.19;10333275;28;20061;-73
2023/12/05 18:45:11;;;;;;;32.20;23.15;;;;;;;2.54;100.00;100880.31;10315646;28;20022;-75
2023/12/05 18:50:12;;;;;;;33.25;24.48;;;;;;;2.54;100.00;100886.50;10333541;28;20042;-74
2023/12/05 18:55:12;;;;;;;32.55;24.00;;;;;;;2.54;100.00;100886.50;10332878;28;20030;-72
2023/12/05 19:00:14;;;;;;;35.75;26.58;;;;;;;2.55;100.00;100895.34;10331450;28;20027;-72
2023/12/05 19:05:14;;;;;;;31.00;22.90;;;;;;;2.54;100.00;100889.16;10332491;28;20049;-73
2023/12/05 19:10:15;;;;;;;35.78;24.92;;;;;;;2.59;100.00;100901.28;10330681;28;20030;-74
2023/12/05 19:15:15;;;;;;;31.80;23.67;;;;;;;2.65;100.00;100900.66;10330946;28;20044;-73
2023/12/05 19:20:16;;;;;;;32.78;23.83;;;;;;;2.65;100.00;100908.69;10332776;28;20034;-73
2023/12/05 19:25:17;;;;;;;31.55;22.98;;;;;;;2.66;100.00;100913.91;10332217;28;20316;-72
2023/12/05 19:30:18;;;;;;;27.08;22.45;;;;;;;2.74;100.00;100919.38;10330966;28;20037;-73
2023/12/05 19:35:19;;;;;;;33.92;27.13;;;;;;;2.79;100.00;100925.13;10332979;28;20034;-71
2023/12/05 19:40:19;;;;;;;31.50;23.67;;;;;;;2.86;100.00;100928.03;10331793;28;20075;-72
2023/12/05 19:45:19;;;;;;;35.40;24.60;;;;;;;2.92;100.00;100929.28;10331763;28;20038;-74
2023/12/05 19:50:20;;;;;;;36.60;29.23;;;;;;;2.93;100.00;100923.78;10331564;28;20117;-73
2023/12/05 19:55:20;;;;;;;37.35;28.70;;;;;;;2.95;100.00;100940.53;10331909;28;20057;-73
2023/12/05 20:00:21;;;;;;;30.08;25.50;;;;;;;3.00;100.00;100937.44;10314438;28;20062;-74
2023/12/05 20:05:21;;;;;;;37.17;28.23;;;;;;;3.01;100.00;100952.50;10331547;28;20436;-74
2023/12/05 20:10:22;;;;;;;32.95;26.98;;;;;;;2.96;100.00;100947.56;10331468;28;20030;-76
2023/12/05 20:15:23;;;;;;;34.92;25.73;;;;;;;2.97;100.00;100953.78;10329532;28;20061;-74
2023/12/05 20:20:23;;;;;;;41.28;29.17;;;;;;;3.00;100.00;100948.13;10336442;28;20045;-73
2023/12/05 20:25:24;;;;;;;36.80;27.17;;;;;;;2.96;100.00;100952.06;10338440;28;20074;-73
2023/12/05 20:30:25;;;;;;;32.00;27.15;;;;;;;2.96;100.00;100949.41;10338106;28;20093;-73
2023/12/05 20:35:26;;;;;;;38.95;28.52;;;;;;;3.05;100.00;100958.38;10336357;28;20030;-74
2023/12/05 20:40:26;;;;;;;38.28;27.80;;;;;;;3.09;100.00;100975.81;10338049;28;20038;-74
2023/12/05 20:45:27;;;;;;;37.65;27.83;;;;;;;3.13;100.00;100972.72;10338363;28;20074;-73
2023/12/05 20:50:27;;;;;;;32.33;26.42;;;;;;;3.11;100.00;100960.47;10335769;28;20125;-72
2023/12/05 20:55:27;;;;;;;38.00;26.02;;;;;;;3.16;100.00;100966.22;10336413;28;20084;-73
2023/12/05 21:00:28;;;;;;;38.75;28.48;;;;;;;3.18;100.00;100972.25;10337659;28;20084;-72
2023/12/05 21:05:28;;;;;;;36.53;27.15;;;;;;;3.21;100.00;100971.97;10336609;28;20190;-73
2023/12/05 21:10:29;;;;;;;34.53;28.27;;;;;;;3.23;100.00;100972.69;10336497;28;20078;-72
2023/12/05 21:15:29;;;;;;;45.30;29.67;;;;;;;3.23;100.00;100978.03;10336772;28;20045;-73
2023/12/05 21:20:30;;;;;;;38.45;28.48;;;;;;;3.22;100.00;100985.22;10344722;28;20121;-73
2023/12/05 21:25:30;;;;;;;44.63;26.40;;;;;;;3.24;100.00;100993.09;10379676;28;20049;-73
2023/12/05 21:30:30;;;;;;;37.75;27.02;;;;;;;3.24;100.00;101001.94;10348602;28;20033;-73
2023/12/05 21:35:31;;;;;;;40.58;27.58;;;;;;;3.25;100.00;101010.81;10337012;28;20042;-73
2023/12/05 21:40:31;;;;;;;41.72;27.10;;;;;;;3.25;100.00;101011.69;10336101;28;20400;-75
2023/12/05 21:45:31;;;;;;;34.33;26.40;;;;;;;3.31;100.00;101020.09;10333890;28;20049;-73
2023/12/05 21:50:32;;;;;;;43.83;30.80;;;;;;;3.38;100.00;101024.72;10334695;28;20069;-73
2023/12/05 21:55:32;;;;;;;40.75;28.63;;;;;;;3.41;100.00;101026.25;10335128;28;20058;-73
2023/12/05 22:00:33;;;;;;;32.65;26.02;;;;;;;3.43;100.00;101022.44;10334755;28;20472;-74
2023/12/05 22:05:33;;;;;;;33.78;26.73;;;;;;;3.45;100.00;101035.69;10332814;28;20101;-73
2023/12/05 22:10:33;;;;;;;34.45;26.35;;;;;;;3.46;100.00;101040.88;10332802;28;20371;-73
2023/12/05 22:15:34;;;;;;;35.17;27.45;;;;;;;3.49;100.00;101040.59;10334577;28;20108;-72
2023/12/05 22:20:34;;;;;;;36.30;25.98;;;;;;;3.52;100.00;101049.31;10333801;28;20129;-74
2023/12/05 22:25:35;;;;;;;30.27;24.98;;;;;;;3.53;100.00;101056.34;10333086;28;20037;-72
2023/12/05 22:30:35;;;;;;;32.08;26.13;;;;;;;3.56;100.00;101061.41;10333871;28;20141;-74
2023/12/05 22:35:38;;;;;;;32.97;23.75;;;;;;;3.58;100.00;101064.81;10333259;28;20046;-72
2023/12/05 22:40:38;;;;;;;38.92;26.40;;;;;;;3.63;100.00;101068.69;10314970;28;20052;-74
2023/12/05 22:45:38;;;;;;;37.00;26.17;;;;;;;3.66;100.00;101083.63;10332082;28;20038;-73
2023/12/05 22:50:39;;;;;;;38.53;26.85;;;;;;;3.69;100.00;101094.88;10332780;28;20474;-73
2023/12/05 22:55:39;;;;;;;38.13;24.20;;;;;;;3.73;100.00;101095.44;10331915;28;20340;-72
2023/12/05 23:00:41;;;;;;;37.25;25.02;;;;;;;3.77;100.00;101101.38;10331326;28;20045;-72